KLEX Airport Diagram

We have created a template for each of the higher traffic airports in the vZID airspace. They include KCMH, KCRW, KCVG, KDAY, KIND, KLEX and KSDF. You wil find usefull information including the airport diagram, weather, and specific airport procedures.

KLEX Weather

[Source: ADDS]
METAR
KLEX 200754Z 06014KT 2SM +RA BR OVC008 01/M01 A3009 RMK AO2 RAB09FZRAE09 PRESFR SLP196 P0017 I1000 T00111011 =
KLEX 200523Z 2006/2106 08012KT 6SM -RA BR SCT025 OVC040 TEMPO 2006/2008 4SM -RA BR SCT015 BKN025 FM200800 09013G18KT 3SM -RA BR SCT006 OVC014 TEMPO 2008/2012 2SM -RA BR BKN006 FM201200 10012G17KT 3SM -RA BR BKN006 OVC012 FM201600 13013G18KT 3SM -RA BR BKN006 FM202000 18015G20KT 4SM -RA BR BKN006 FM210000 23014G19KT 6SM -RA BR BKN008
TAF
KLEX 200523Z 2006/2106 08012KT 6SM -RA BR SCT025 OVC040 TEMPO 2006/2008 4SM -RA BR SCT015 BKN025 FM200800 09013G18KT 3SM -RA BR SCT006 OVC014 TEMPO 2008/2012 2SM -RA BR BKN006 FM201200 10012G17KT 3SM -RA BR BKN006 OVC012 FM201600 13013G18KT 3SM -RA BR BKN006 FM202000 18015G20KT 4SM -RA BR BKN006 FM210000 23014G19KT 6SM -RA BR BKN008 =

KLEX Operations

Calm wind runway at KLEX is Runway 22, up to and including 10kts.

Default scenery shows Runway 8/26, which crosses Runway 22. When taxiing to Runway 22, clearance to cross Runway 26 not required.

Updated scenery available at www.flightsim.com.

 

JSN Epic template designed by JoomlaShine.com